Time;durP1;ratioP1;P1;durP2;ratioP2;P2;SDS_P1;SDS_P2;PMS_P1;PMS_P2;Temp;Humidity;BMP_temperature;BMP_pressure;BME280_temperature;BME280_humidity;BME280_pressure;Samples;Min_cycle;Max_cycle;Signal;HPM_P1;HPM_P2
2023/06/15 00:00:56;;;;;;;12.95;8.40;;;;;;;15.85;100.00;94476.97;5118097;28;20567;-75
2023/06/15 00:03:23;;;;;;;15.32;9.48;;;;;;;15.95;100.00;94476.34;5109893;28;20618;-75
2023/06/15 00:05:50;;;;;;;17.10;9.52;;;;;;;15.94;100.00;94477.50;5120875;28;20225;-75
2023/06/15 00:08:17;;;;;;;14.07;8.43;;;;;;;15.95;100.00;94474.41;5116325;28;20240;-75
2023/06/15 00:10:44;;;;;;;15.77;9.30;;;;;;;15.99;100.00;94474.44;5123905;28;20242;-75
2023/06/15 00:13:10;;;;;;;12.63;7.78;;;;;;;16.02;100.00;94470.97;5126597;28;20675;-75
2023/06/15 00:15:39;;;;;;;12.50;8.38;;;;;;;16.05;100.00;94473.00;5115501;28;20554;-75
2023/06/15 00:18:06;;;;;;;17.13;8.88;;;;;;;16.06;100.00;94471.84;5098627;28;20208;-75
2023/06/15 00:20:34;;;;;;;13.30;8.27;;;;;;;16.08;100.00;94475.00;5112705;28;20950;-75
2023/06/15 00:23:01;;;;;;;12.82;8.20;;;;;;;16.09;100.00;94471.13;5108158;28;20202;-76
2023/06/15 00:25:28;;;;;;;10.02;7.32;;;;;;;16.16;100.00;94464.97;5103075;28;20226;-75
2023/06/15 00:27:55;;;;;;;12.57;8.38;;;;;;;16.15;100.00;94469.63;5096993;28;20273;-75
2023/06/15 00:30:22;;;;;;;14.70;9.05;;;;;;;16.23;100.00;94460.41;5102930;28;20193;-75
2023/06/15 00:32:50;;;;;;;13.32;8.55;;;;;;;16.18;100.00;94463.44;5107866;28;20248;-74
2023/06/15 00:35:16;;;;;;;13.65;7.57;;;;;;;16.20;100.00;94454.88;5097326;28;20222;-77
2023/06/15 00:37:43;;;;;;;13.15;8.10;;;;;;;16.15;100.00;94458.72;5106771;28;20205;-77
2023/06/15 00:40:11;;;;;;;14.10;8.15;;;;;;;16.18;100.00;94460.72;5096099;28;20206;-77
2023/06/15 00:42:38;;;;;;;10.65;7.43;;;;;;;16.14;100.00;94446.19;5104457;28;20196;-77
2023/06/15 00:45:06;;;;;;;10.25;7.18;;;;;;;16.11;100.00;94455.16;5109159;28;20270;-77
2023/06/15 00:47:39;;;;;;;11.45;7.50;;;;;;;16.21;100.00;94456.47;5105935;28;20279;-77
2023/06/15 00:50:10;;;;;;;11.30;7.80;;;;;;;16.21;100.00;94462.72;5098429;28;20187;-77
2023/06/15 00:52:38;;;;;;;12.88;7.50;;;;;;;16.15;100.00;94453.25;5096118;28;20691;-77
2023/06/15 00:55:06;;;;;;;10.45;6.80;;;;;;;16.17;100.00;94448.19;5094169;28;20205;-77
2023/06/15 00:57:34;;;;;;;11.02;6.95;;;;;;;16.18;100.00;94452.50;5106668;28;20205;-77
2023/06/15 01:00:04;;;;;;;11.23;6.38;;;;;;;16.21;100.00;94451.78;5109711;28;20197;-75
2023/06/15 01:02:34;;;;;;;8.77;6.10;;;;;;;16.19;100.00;94451.34;5093625;28;20206;-75
2023/06/15 01:05:01;;;;;;;7.25;5.63;;;;;;;16.16;100.00;94443.09;5104726;28;20238;-75
2023/06/15 01:07:29;;;;;;;9.20;6.45;;;;;;;16.13;100.00;94449.28;5102740;28;20244;-77
2023/06/15 01:09:57;;;;;;;10.07;6.10;;;;;;;16.16;100.00;94457.56;5097551;28;20206;-77
2023/06/15 01:12:28;;;;;;;9.80;6.95;;;;;;;16.11;100.00;94446.94;5099499;28;20213;-75
2023/06/15 01:14:55;;;;;;;9.27;6.43;;;;;;;16.22;100.00;94452.56;5102163;28;20190;-76
2023/06/15 01:17:23;;;;;;;7.97;5.93;;;;;;;16.28;100.00;94440.94;5102901;28;20601;-75
2023/06/15 01:20:03;;;;;;;9.00;6.32;;;;;;;16.32;100.00;94441.78;5093415;28;20301;-76
2023/06/15 01:22:45;;;;;;;9.43;6.30;;;;;;;16.22;100.00;94431.50;5093761;28;20195;-75
2023/06/15 01:25:26;;;;;;;9.65;6.65;;;;;;;16.21;100.00;94429.13;5098358;28;20840;-76
2023/06/15 01:27:58;;;;;;;13.88;6.47;;;;;;;16.35;100.00;94435.59;5103362;28;20694;-75
2023/06/15 01:30:26;;;;;;;9.63;6.35;;;;;;;16.35;100.00;94435.59;5099479;28;20190;-75
2023/06/15 01:32:53;;;;;;;8.93;6.20;;;;;;;16.29;100.00;94426.13;5110218;28;20277;-74
2023/06/15 01:35:20;;;;;;;10.02;5.93;;;;;;;16.15;100.00;94425.91;5095677;28;20321;-75
2023/06/15 01:37:47;;;;;;;14.25;6.97;;;;;;;16.27;100.00;94428.44;5097496;28;20193;-76
2023/06/15 01:40:14;;;;;;;9.05;6.78;;;;;;;16.31;100.00;94423.81;5107261;28;20217;-75
2023/06/15 01:42:43;;;;;;;10.77;7.18;;;;;;;16.34;100.00;94420.34;5097234;28;20663;-74
2023/06/15 01:45:13;;;;;;;9.65;7.10;;;;;;;16.31;100.00;94428.50;5107317;28;20656;-75
2023/06/15 01:47:41;;;;;;;12.43;7.18;;;;;;;16.30;100.00;94424.97;5107279;28;20653;-75
2023/06/15 01:50:09;;;;;;;10.50;6.50;;;;;;;16.28;100.00;94424.53;5104092;28;20206;-76
2023/06/15 01:52:36;;;;;;;10.15;6.65;;;;;;;16.27;100.00;94417.50;5106778;28;20197;-75
2023/06/15 01:55:04;;;;;;;8.75;6.32;;;;;;;16.25;100.00;94424.50;5109553;28;20202;-75
2023/06/15 01:57:35;;;;;;;12.48;6.85;;;;;;;16.35;100.00;94423.88;5097122;28;20203;-75
2023/06/15 02:00:03;;;;;;;12.07;7.20;;;;;;;16.35;100.00;94423.88;5100974;28;20656;-76
2023/06/15 02:02:32;;;;;;;9.85;6.70;;;;;;;16.37;100.00;94426.25;5101755;28;20194;-75
2023/06/15 02:04:59;;;;;;;15.48;7.00;;;;;;;16.44;100.00;94420.84;5102211;28;20614;-76
2023/06/15 02:07:26;;;;;;;11.52;6.93;;;;;;;16.40;100.00;94422.78;5099257;28;20190;-75
2023/06/15 02:09:53;;;;;;;11.23;7.30;;;;;;;16.44;100.00;94420.84;5102191;28;20206;-75
2023/06/15 02:12:20;;;;;;;10.35;6.85;;;;;;;16.42;100.00;94418.50;5099407;28;20285;-76
2023/06/15 02:14:47;;;;;;;10.85;6.95;;;;;;;16.28;100.00;94408.13;5096428;28;20617;-75
2023/06/15 02:17:16;;;;;;;11.15;7.20;;;;;;;16.22;100.00;94414.31;5098490;28;20213;-76
2023/06/15 02:19:45;;;;;;;12.73;7.15;;;;;;;16.19;100.00;94415.81;5103646;28;20197;-76
2023/06/15 02:22:11;;;;;;;10.40;6.80;;;;;;;16.14;100.00;94418.88;5091466;28;20595;-76
2023/06/15 02:24:38;;;;;;;10.95;7.93;;;;;;;16.17;100.00;94411.88;5099219;28;20205;-76
2023/06/15 02:27:06;;;;;;;11.75;8.38;;;;;;;16.22;100.00;94409.63;5099408;28;20279;-76
2023/06/15 02:29:33;;;;;;;13.38;8.40;;;;;;;16.14;100.00;94401.69;5095449;28;20226;-75
2023/06/15 02:31:59;;;;;;;10.73;7.50;;;;;;;16.14;100.00;94407.94;5109850;28;20660;-75
2023/06/15 02:34:26;;;;;;;13.38;7.55;;;;;;;16.07;100.00;94405.09;5110264;28;20225;-76
2023/06/15 02:36:54;;;;;;;11.65;6.88;;;;;;;15.91;100.00;94407.19;5107300;28;20671;-76
2023/06/15 02:39:22;;;;;;;13.23;6.88;;;;;;;16.00;100.00;94403.03;5104848;28;21160;-76
2023/06/15 02:41:48;;;;;;;12.07;7.65;;;;;;;16.07;100.00;94407.06;5090585;28;20671;-76
2023/06/15 02:44:15;;;;;;;12.02;7.40;;;;;;;16.04;100.00;94408.56;5105093;28;20198;-76
2023/06/15 02:46:42;;;;;;;14.10;8.15;;;;;;;15.99;100.00;94411.59;5097856;28;20802;-76
2023/06/15 02:49:09;;;;;;;12.27;8.65;;;;;;;16.06;100.00;94419.94;5107416;28;20598;-76
2023/06/15 02:51:37;;;;;;;13.25;7.65;;;;;;;16.13;100.00;94411.03;5101570;28;20679;-76
2023/06/15 02:54:06;;;;;;;15.73;9.75;;;;;;;16.12;100.00;94404.81;5091264;28;20198;-76
2023/06/15 02:56:34;;;;;;;13.18;8.70;;;;;;;16.16;100.00;94405.63;5102744;28;20198;-76
2023/06/15 02:59:01;;;;;;;12.93;9.05;;;;;;;16.09;100.00;94410.22;5103912;28;20675;-76
2023/06/15 03:01:38;;;;;;;11.98;9.18;;;;;;;16.17;100.00;94412.66;5097375;28;20210;-76
2023/06/15 03:04:09;;;;;;;14.38;9.10;;;;;;;16.23;100.00;94410.41;5098049;28;20250;-76
2023/06/15 03:06:37;;;;;;;15.75;9.00;;;;;;;16.30;100.00;94418.72;5105202;28;20243;-75
2023/06/15 03:09:07;;;;;;;13.68;9.02;;;;;;;16.22;100.00;94409.63;5096444;28;20285;-76
2023/06/15 03:11:33;;;;;;;15.23;9.73;;;;;;;16.19;100.00;94415.81;5102703;28;20579;-76
2023/06/15 03:14:00;;;;;;;12.23;8.73;;;;;;;16.16;100.00;94416.56;5099697;28;20193;-76
2023/06/15 03:16:27;;;;;;;15.05;9.10;;;;;;;16.19;100.00;94406.84;5103095;28;20230;-76
2023/06/15 03:18:54;;;;;;;16.42;9.18;;;;;;;16.27;100.00;94413.97;5101422;28;20206;-76
2023/06/15 03:21:22;;;;;;;14.75;9.68;;;;;;;16.29;100.00;94411.66;5105487;28;20240;-75
2023/06/15 03:23:50;;;;;;;12.90;9.32;;;;;;;16.24;100.00;94407.31;5095829;28;20206;-76
2023/06/15 03:26:18;;;;;;;13.80;9.02;;;;;;;16.42;100.00;94407.56;5095052;28;20275;-76
2023/06/15 03:28:45;;;;;;;15.52;9.85;;;;;;;16.53;100.00;94402.25;5104436;28;20663;-76
2023/06/15 03:31:17;;;;;;;14.27;9.68;;;;;;;16.66;100.00;94409.88;5108180;28;20277;-76
2023/06/15 03:33:45;;;;;;;16.05;10.65;;;;;;;16.57;100.00;94400.34;5091709;28;20213;-76
2023/06/15 03:36:13;;;;;;;14.15;9.23;;;;;;;16.79;100.00;94398.69;5093846;28;20564;-76
2023/06/15 03:38:40;;;;;;;18.65;9.85;;;;;;;16.76;100.00;94394.75;5109324;28;20274;-76
2023/06/15 03:41:07;;;;;;;13.73;9.60;;;;;;;16.86;100.00;94394.09;5102643;28;20209;-76
2023/06/15 03:43:35;;;;;;;13.60;9.50;;;;;;;17.13;100.00;94396.72;5098837;28;20259;-77
2023/06/15 03:46:02;;;;;;;14.80;10.00;;;;;;;17.53;100.00;94399.50;5106175;28;20229;-77
2023/06/15 03:48:28;;;;;;;13.43;9.20;;;;;;;17.71;100.00;94400.47;5098717;28;20209;-77
2023/06/15 03:50:56;;;;;;;12.35;8.93;;;;;;;17.83;100.00;94395.88;5096549;28;20204;-76
2023/06/15 03:53:23;;;;;;;15.02;11.07;;;;;;;17.77;100.00;94412.66;5101213;28;20284;-76
2023/06/15 03:55:50;;;;;;;11.57;9.05;;;;;;;17.84;100.00;94408.41;5094749;28;20206;-77
2023/06/15 03:58:17;;;;;;;11.75;9.43;;;;;;;17.92;100.00;94410.81;5102108;28;20251;-77
2023/06/15 04:00:45;;;;;;;8.80;6.82;;;;;;;17.82;100.00;94410.75;5098192;28;20274;-76
2023/06/15 04:03:13;;;;;;;10.57;7.45;;;;;;;18.07;100.00;94411.72;5106835;28;20206;-77
2023/06/15 04:05:40;;;;;;;9.63;7.18;;;;;;;18.11;100.00;94412.53;5095869;28;20234;-77
2023/06/15 04:08:08;;;;;;;12.10;7.72;;;;;;;18.33;100.00;94411.50;5101421;28;20657;-76
2023/06/15 04:10:35;;;;;;;11.70;8.13;;;;;;;18.45;100.00;94413.16;5107374;28;20223;-77
2023/06/15 04:13:02;;;;;;;9.60;7.18;;;;;;;18.69;100.00;94409.03;5110297;28;20429;-77
2023/06/15 04:15:28;;;;;;;10.98;7.82;;;;;;;18.75;100.00;94412.97;5101973;28;20623;-77
2023/06/15 04:18:00;;;;;;;10.68;6.45;;;;;;;18.81;100.00;94416.91;5110213;28;20217;-77
2023/06/15 04:20:28;;;;;;;10.38;7.95;;;;;;;19.20;100.00;94416.28;5101724;28;20222;-77
2023/06/15 04:22:56;;;;;;;8.10;7.30;;;;;;;19.30;100.00;94410.03;5105648;28;20197;-77
2023/06/15 04:25:23;;;;;;;7.75;6.25;;;;;;;19.75;99.89;94408.59;5103144;28;20217;-77
2023/06/15 04:27:52;;;;;;;7.57;5.35;;;;;;;21.20;96.58;94397.38;5108590;28;20226;-76
2023/06/15 04:30:24;;;;;;;7.40;5.25;;;;;;;22.20;87.66;94405.81;5101585;28;20193;-77
2023/06/15 04:32:57;;;;;;;9.13;6.75;;;;;;;22.98;84.66;94398.72;5099365;28;20244;-77
2023/06/15 04:35:28;;;;;;;7.50;5.50;;;;;;;22.77;81.39;94401.75;5103776;28;20201;-78
2023/06/15 04:37:57;;;;;;;7.07;6.13;;;;;;;22.58;80.46;94400.31;5105518;28;20205;-78
2023/06/15 04:40:23;;;;;;;7.57;6.75;;;;;;;21.68;82.75;94413.25;5101294;28;20259;-78
2023/06/15 04:42:52;;;;;;;7.68;6.88;;;;;;;21.44;86.60;94405.94;5104577;28;20202;-78
2023/06/15 04:45:18;;;;;;;9.25;6.25;;;;;;;20.99;87.52;94407.66;5101385;28;20198;-78
2023/06/15 04:47:47;;;;;;;8.18;7.13;;;;;;;20.43;89.29;94404.66;5102328;28;20284;-79
2023/06/15 04:50:14;;;;;;;9.98;5.60;;;;;;;20.91;89.71;94407.69;5101640;28;20207;-79
2023/06/15 04:52:42;;;;;;;8.25;5.93;;;;;;;20.44;89.87;94414.50;5101972;28;20661;-79
2023/06/15 04:55:11;;;;;;;7.68;5.93;;;;;;;20.03;91.07;94418.81;5104344;28;20871;-79
2023/06/15 04:57:38;;;;;;;6.90;5.72;;;;;;;19.57;96.04;94425.03;5100059;28;20687;-79
2023/06/15 05:00:08;;;;;;;8.70;6.68;;;;;;;19.21;98.39;94424.13;5100108;28;20213;-79
2023/06/15 05:02:35;;;;;;;7.95;6.28;;;;;;;19.26;98.42;94425.75;5110687;28;20202;-79
2023/06/15 05:05:02;;;;;;;11.25;8.88;;;;;;;18.69;99.47;94420.00;5109994;28;20241;-79
2023/06/15 05:07:29;;;;;;;10.65;8.50;;;;;;;18.75;100.00;94421.19;5109920;28;20221;-79
2023/06/15 05:09:57;;;;;;;14.02;7.82;;;;;;;18.70;100.00;94429.81;5110711;28;20293;-80
2023/06/15 05:12:24;;;;;;;10.00;8.80;;;;;;;18.39;100.00;94429.19;5110200;28;20254;-79
2023/06/15 05:14:51;;;;;;;12.65;9.30;;;;;;;18.22;100.00;94432.59;5110908;28;20233;-79
2023/06/15 05:17:19;;;;;;;10.45;8.90;;;;;;;18.27;100.00;94425.97;5110091;28;20293;-79
2023/06/15 05:19:46;;;;;;;11.07;9.32;;;;;;;18.29;100.00;94432.66;5111369;28;20569;-79
2023/06/15 05:22:12;;;;;;;11.82;9.10;;;;;;;18.56;100.00;94426.94;5111886;28;20209;-80
2023/06/15 05:24:40;;;;;;;10.43;7.70;;;;;;;18.81;100.00;94425.94;5111000;28;20294;-79
2023/06/15 05:27:08;;;;;;;13.35;9.75;;;;;;;19.11;100.00;94436.66;5111334;28;20871;-79
2023/06/15 05:29:36;;;;;;;11.90;9.98;;;;;;;19.41;100.00;94438.31;5110894;28;20296;-80
2023/06/15 05:32:03;;;;;;;11.77;7.93;;;;;;;19.44;99.56;94437.53;5100130;28;20289;-80
2023/06/15 05:34:29;;;;;;;9.90;7.50;;;;;;;19.32;100.00;94440.66;5109099;28;20286;-80
2023/06/15 05:36:56;;;;;;;14.25;8.63;;;;;;;19.59;98.35;94436.44;5110789;28;20286;-80
2023/06/15 05:39:24;;;;;;;11.02;7.47;;;;;;;19.90;96.90;94436.88;5110735;28;20209;-80
2023/06/15 05:41:51;;;;;;;12.07;8.88;;;;;;;19.49;96.46;94434.47;5111072;28;20597;-80
2023/06/15 05:44:19;;;;;;;10.25;8.55;;;;;;;19.51;96.90;94438.41;5110646;28;20212;-80
2023/06/15 05:46:46;;;;;;;13.43;9.38;;;;;;;19.70;95.20;94439.19;5110842;28;20309;-80
2023/06/15 05:49:13;;;;;;;9.93;7.70;;;;;;;19.84;93.34;94444.72;5110292;28;20275;-80
2023/06/15 05:51:39;;;;;;;11.25;9.00;;;;;;;19.73;93.14;94441.97;5097773;28;20248;-80
2023/06/15 05:54:06;;;;;;;9.05;7.53;;;;;;;20.07;93.28;94447.91;5103826;28;20285;-80
2023/06/15 05:56:33;;;;;;;11.70;8.18;;;;;;;20.02;91.71;94439.25;5103131;28;20216;-79
2023/06/15 05:59:00;;;;;;;15.52;8.88;;;;;;;20.30;92.52;94450.25;5103697;28;20649;-78
2023/06/15 06:01:28;;;;;;;13.73;8.88;;;;;;;20.08;91.82;94449.47;5103849;28;20247;-79
2023/06/15 06:03:55;;;;;;;9.18;7.63;;;;;;;20.14;92.28;94449.84;5110477;28;20979;-79
2023/06/15 06:06:21;;;;;;;13.95;8.40;;;;;;;20.37;90.69;94450.25;5109649;28;20237;-79
2023/06/15 06:08:48;;;;;;;10.88;7.85;;;;;;;21.04;90.04;94451.34;5110862;28;20262;-79
2023/06/15 06:11:15;;;;;;;11.70;8.05;;;;;;;21.51;86.79;94449.97;5110433;28;20671;-79
2023/06/15 06:13:42;;;;;;;12.13;9.13;;;;;;;21.73;84.20;94445.91;5096554;28;20202;-81
2023/06/15 06:16:09;;;;;;;11.27;8.98;;;;;;;21.66;84.72;94440.44;5110171;28;20213;-79
2023/06/15 06:18:37;;;;;;;10.73;8.77;;;;;;;21.60;84.60;94436.53;5110076;28;20216;-80
2023/06/15 06:21:04;;;;;;;10.95;9.48;;;;;;;21.79;82.78;94438.78;5110367;28;20217;-80
2023/06/15 06:23:32;;;;;;;11.13;9.55;;;;;;;22.20;81.30;94440.91;5110077;28;20224;-80
2023/06/15 06:25:59;;;;;;;10.70;9.60;;;;;;;22.34;80.93;94429.75;5110202;28;20670;-79
2023/06/15 06:28:26;;;;;;;11.88;9.25;;;;;;;22.74;78.69;94430.16;5110123;28;20229;-80
2023/06/15 06:30:53;;;;;;;11.05;9.80;;;;;;;22.94;79.23;94444.97;5110204;28;20228;-80
2023/06/15 06:33:20;;;;;;;11.00;9.52;;;;;;;23.47;76.33;94438.81;5110267;28;20229;-81
2023/06/15 06:35:48;;;;;;;13.40;9.70;;;;;;;23.05;77.33;94437.34;5108861;28;20210;-79
2023/06/15 06:38:15;;;;;;;13.48;9.65;;;;;;;23.11;76.26;94432.13;5109615;28;20197;-79
2023/06/15 06:40:41;;;;;;;11.95;9.32;;;;;;;23.00;75.26;94443.31;5109431;28;20209;-80
2023/06/15 06:43:08;;;;;;;12.25;9.95;;;;;;;22.89;76.22;94442.66;5109385;28;20577;-79
2023/06/15 06:45:35;;;;;;;11.85;9.85;;;;;;;22.61;78.57;94450.00;5109882;28;20210;-80
2023/06/15 06:48:02;;;;;;;13.23;11.32;;;;;;;22.31;79.53;94449.88;5109630;28;20229;-80
2023/06/15 06:50:29;;;;;;;12.95;10.68;;;;;;;21.81;80.91;94458.47;5109686;28;20589;-79
2023/06/15 06:52:57;;;;;;;15.75;10.68;;;;;;;21.95;82.12;94457.59;5099522;28;20241;-80
2023/06/15 06:55:24;;;;;;;13.95;10.82;;;;;;;22.02;82.97;94459.53;5105820;28;20688;-80
2023/06/15 06:57:51;;;;;;;15.18;10.73;;;;;;;21.91;82.08;94452.09;5109635;28;20206;-80
2023/06/15 07:00:18;;;;;;;14.00;11.25;;;;;;;21.90;82.93;94450.53;5109800;28;20209;-80
2023/06/15 07:02:45;;;;;;;15.88;11.10;;;;;;;22.11;81.52;94452.41;5109823;28;20302;-79
2023/06/15 07:05:11;;;;;;;12.35;11.05;;;;;;;21.75;84.44;94454.56;5109177;28;20384;-80
2023/06/15 07:07:38;;;;;;;17.80;11.30;;;;;;;21.82;82.51;94454.53;5110039;28;20286;-80
2023/06/15 07:10:08;;;;;;;14.02;10.70;;;;;;;21.87;83.74;94459.59;5109480;28;20706;-80
2023/06/15 07:12:35;;;;;;;13.90;10.98;;;;;;;21.27;84.31;94446.94;5109904;28;20206;-80
2023/06/15 07:15:01;;;;;;;15.80;11.55;;;;;;;21.74;84.16;94447.47;5109455;28;20290;-81
2023/06/15 07:17:28;;;;;;;13.82;10.90;;;;;;;22.03;83.53;94452.84;5109472;28;20223;-81
2023/06/15 07:19:55;;;;;;;15.27;11.65;;;;;;;21.98;83.31;94449.31;5109518;28;20202;-80
2023/06/15 07:22:22;;;;;;;14.82;10.63;;;;;;;22.22;82.50;94450.34;5109379;28;20250;-82
2023/06/15 07:24:48;;;;;;;16.02;11.77;;;;;;;22.25;82.48;94454.25;5109168;28;20267;-80
2023/06/15 07:27:17;;;;;;;16.50;12.50;;;;;;;22.04;82.77;94443.38;5111388;28;20240;-80
2023/06/15 07:29:43;;;;;;;15.93;12.38;;;;;;;22.36;81.48;94451.41;5113409;28;20269;-80
2023/06/15 07:32:10;;;;;;;15.82;11.98;;;;;;;22.57;79.69;94456.75;5113738;28;20205;-80
2023/06/15 07:34:37;;;;;;;15.02;12.50;;;;;;;22.07;81.72;94459.91;5112914;28;20591;-83
2023/06/15 07:37:04;;;;;;;15.00;12.73;;;;;;;21.99;81.15;94450.13;5113889;28;20282;-82
2023/06/15 07:39:31;;;;;;;15.70;12.43;;;;;;;22.05;80.56;94455.97;5099564;28;20210;-79
2023/06/15 07:41:58;;;;;;;18.88;13.35;;;;;;;21.59;83.76;94451.53;5113001;28;20205;-78
2023/06/15 07:44:26;;;;;;;15.75;12.63;;;;;;;21.25;83.88;94454.03;5112670;28;20213;-77
2023/06/15 07:47:10;;;;;;;19.48;12.73;;;;;;;21.03;85.92;94444.25;5112914;28;20205;-80
2023/06/15 07:49:48;;;;;;;14.00;12.00;;;;;;;21.42;86.31;94447.66;5113525;28;20211;-77
2023/06/15 07:52:15;;;;;;;16.67;12.25;;;;;;;21.40;87.35;94443.72;5113347;28;20204;-79
2023/06/15 07:54:42;;;;;;;16.88;12.07;;;;;;;21.52;86.01;94451.56;5113042;28;20230;-78
2023/06/15 07:57:08;;;;;;;16.08;11.75;;;;;;;21.41;83.60;94440.59;5113310;28;20236;-78
2023/06/15 07:59:37;;;;;;;14.82;12.00;;;;;;;21.50;82.78;94442.88;5112424;28;20201;-79
2023/06/15 08:02:04;;;;;;;16.77;11.65;;;;;;;21.66;83.35;94445.97;5112330;28;20885;-82
2023/06/15 08:04:30;;;;;;;17.27;11.88;;;;;;;21.63;82.97;94449.50;5113584;28;20270;-80
2023/06/15 08:06:57;;;;;;;15.13;12.30;;;;;;;21.59;82.95;94446.78;5108086;28;20238;-81
2023/06/15 08:09:24;;;;;;;14.80;12.35;;;;;;;21.71;82.70;94453.03;5104209;28;20254;-81
2023/06/15 08:11:51;;;;;;;15.80;12.48;;;;;;;21.54;82.47;94446.41;5113141;28;20209;-83
2023/06/15 08:14:19;;;;;;;13.50;11.98;;;;;;;21.40;84.45;94440.97;5112778;28;20201;-83
2023/06/15 08:16:48;;;;;;;15.38;12.13;;;;;;;21.62;82.80;94445.97;5112699;28;20215;-80
2023/06/15 08:19:15;;;;;;;18.38;11.98;;;;;;;22.05;80.66;94444.94;5102221;28;20204;-78
2023/06/15 08:21:42;;;;;;;14.63;12.05;;;;;;;21.96;81.91;94443.41;5109166;28;20472;-79
2023/06/15 08:24:09;;;;;;;14.52;11.75;;;;;;;22.21;80.86;94454.28;5105071;28;20310;-80
2023/06/15 08:26:35;;;;;;;13.98;11.48;;;;;;;22.07;79.57;94453.59;5099002;28;20194;-79
2023/06/15 08:29:02;;;;;;;13.52;12.13;;;;;;;22.19;79.66;94451.16;5109485;28;20291;-82
2023/06/15 08:31:30;;;;;;;12.55;11.20;;;;;;;22.21;79.73;94450.75;5098588;28;20280;-81
2023/06/15 08:33:58;;;;;;;14.15;11.40;;;;;;;22.26;79.68;94450.31;5108652;28;20556;-80
2023/06/15 08:36:24;;;;;;;14.13;10.88;;;;;;;22.05;78.44;94450.47;5109853;28;20201;-81
2023/06/15 08:38:51;;;;;;;13.15;10.63;;;;;;;21.95;78.72;94447.34;5094903;28;20204;-80
2023/06/15 08:41:20;;;;;;;13.98;10.95;;;;;;;22.17;79.97;94455.50;5100874;28;20321;-80
2023/06/15 08:43:49;;;;;;;12.90;9.88;;;;;;;22.21;78.24;94451.53;5106112;28;20202;-77
2023/06/15 08:46:16;;;;;;;13.07;10.85;;;;;;;22.08;80.74;94455.19;5111100;28;20592;-78
2023/06/15 08:48:46;;;;;;;12.93;10.63;;;;;;;21.95;78.50;94458.38;5109060;28;20562;-78
2023/06/15 08:51:14;;;;;;;13.45;11.23;;;;;;;21.53;82.42;94458.63;5101873;28;20583;-81
2023/06/15 08:53:43;;;;;;;12.95;10.68;;;;;;;21.17;82.49;94469.78;5099380;28;20296;-80
2023/06/15 08:56:12;;;;;;;13.25;11.85;;;;;;;21.05;84.24;94464.69;5110624;28;20276;-79
2023/06/15 08:58:39;;;;;;;14.88;11.00;;;;;;;21.09;84.86;94462.72;5112177;28;20648;-80
2023/06/15 09:01:07;;;;;;;14.68;11.23;;;;;;;20.93;85.04;94465.91;5110522;28;20542;-79
2023/06/15 09:03:36;;;;;;;14.38;11.82;;;;;;;20.81;86.31;94468.28;5111623;28;20211;-79
2023/06/15 09:06:03;;;;;;;13.52;11.15;;;;;;;20.60;89.96;94473.84;5108174;28;20232;-81
2023/06/15 09:08:32;;;;;;;13.82;11.50;;;;;;;20.68;91.95;94469.91;5104866;28;20582;-78
2023/06/15 09:11:07;;;;;;;14.27;12.38;;;;;;;20.51;92.51;94476.97;5107367;28;20223;-77
2023/06/15 09:13:34;;;;;;;17.00;12.88;;;;;;;20.32;96.85;94486.41;5111095;28;20201;-77
2023/06/15 09:16:03;;;;;;;19.08;13.68;;;;;;;20.18;97.13;94478.94;5109606;28;20209;-77
2023/06/15 09:18:42;;;;;;;17.23;12.95;;;;;;;19.99;99.17;94482.06;5105926;28;20278;-75
2023/06/15 09:21:12;;;;;;;21.30;15.07;;;;;;;19.65;100.00;94481.63;5104032;28;20198;-77
2023/06/15 09:23:44;;;;;;;20.98;16.25;;;;;;;19.51;100.00;94490.59;5092125;28;20268;-77
2023/06/15 09:26:20;;;;;;;21.30;15.88;;;;;;;19.38;100.00;94485.81;5098308;28;20198;-76
2023/06/15 09:28:47;;;;;;;21.27;16.67;;;;;;;19.09;100.00;94488.44;5102475;28;20221;-77
2023/06/15 09:31:29;;;;;;;18.27;14.20;;;;;;;19.00;100.00;94489.94;5104898;28;20194;-79
2023/06/15 09:34:03;;;;;;;19.83;14.27;;;;;;;18.86;100.00;94468.69;5107069;28;20217;-77
2023/06/15 09:36:41;;;;;;;24.02;16.45;;;;;;;18.96;100.00;94484.44;5111018;28;20205;-78
2023/06/15 09:39:10;;;;;;;21.52;16.77;;;;;;;19.10;100.00;94479.03;5111312;28;20197;-78
2023/06/15 09:41:51;;;;;;;22.40;13.45;;;;;;;19.09;100.00;94477.44;5100186;28;20662;-78
2023/06/15 09:44:19;;;;;;;21.83;13.18;;;;;;;18.97;100.00;94479.75;5109946;28;20583;-75
2023/06/15 09:46:49;;;;;;;20.67;13.05;;;;;;;19.02;100.00;94482.09;5110572;28;20208;-79
2023/06/15 09:49:21;;;;;;;26.17;14.32;;;;;;;19.07;100.00;94488.03;5108753;28;20234;-78
2023/06/15 09:51:50;;;;;;;22.48;12.93;;;;;;;19.11;100.00;94486.09;5089757;28;20263;-78
2023/06/15 09:54:20;;;;;;;19.88;12.38;;;;;;;19.15;100.00;94486.88;5110562;28;20654;-79
2023/06/15 09:56:49;;;;;;;19.65;13.05;;;;;;;19.26;100.00;94488.91;5110154;28;20647;-79
2023/06/15 09:59:16;;;;;;;20.15;13.15;;;;;;;19.15;100.00;94489.63;5108663;28;20229;-78
2023/06/15 10:01:48;;;;;;;22.60;15.60;;;;;;;19.29;100.00;94490.84;5105142;28;20208;-78
2023/06/15 10:04:16;;;;;;;20.77;13.30;;;;;;;19.13;100.00;94489.22;5105088;28;20207;-78
2023/06/15 10:06:46;;;;;;;20.15;13.27;;;;;;;18.96;100.00;94489.94;5108565;28;20789;-78
2023/06/15 10:09:22;;;;;;;20.67;15.90;;;;;;;18.64;100.00;94494.44;5104101;28;20266;-78
2023/06/15 10:11:52;;;;;;;20.98;12.43;;;;;;;18.42;100.00;94491.53;5110071;28;20205;-78
2023/06/15 10:14:26;;;;;;;21.77;13.50;;;;;;;18.47;100.00;94504.88;5102575;28;20705;-78
2023/06/15 10:17:01;;;;;;;18.67;12.52;;;;;;;18.54;100.00;94506.88;5102163;28;20194;-78
2023/06/15 10:19:30;;;;;;;23.05;13.80;;;;;;;18.40;100.00;94513.06;5103326;28;20204;-78
2023/06/15 10:21:58;;;;;;;23.05;13.35;;;;;;;18.38;100.00;94504.41;5097999;28;20246;-78
2023/06/15 10:24:27;;;;;;;20.08;12.55;;;;;;;18.30;100.00;94497.31;5109942;28;20258;-79
2023/06/15 10:26:54;;;;;;;23.20;14.13;;;;;;;18.15;100.00;94494.81;5110019;28;20553;-77
2023/06/15 10:29:29;;;;;;;23.17;17.08;;;;;;;18.48;100.00;94495.47;5109896;28;20306;-76
2023/06/15 10:32:07;;;;;;;21.83;14.70;;;;;;;18.41;100.00;94503.66;5109996;28;20250;-76
2023/06/15 10:34:43;;;;;;;25.63;15.23;;;;;;;18.35;100.00;94496.94;5109397;28;20656;-76
2023/06/15 10:37:20;;;;;;;21.52;13.32;;;;;;;18.29;100.00;94501.22;5097944;28;20190;-76
2023/06/15 10:39:51;;;;;;;27.73;15.10;;;;;;;18.30;100.00;94500.06;5097275;28;20193;-77
2023/06/15 10:42:18;;;;;;;26.30;15.13;;;;;;;18.51;100.00;94501.38;5102624;28;20216;-75
2023/06/15 10:44:44;;;;;;;23.90;15.15;;;;;;;18.54;100.00;94503.34;5094639;28;20201;-76
2023/06/15 10:47:13;;;;;;;21.77;14.60;;;;;;;18.29;100.00;94503.97;5090951;28;20214;-77
2023/06/15 10:49:49;;;;;;;24.35;14.77;;;;;;;18.02;100.00;94486.09;5109426;28;20237;-75
2023/06/15 10:52:15;;;;;;;26.50;15.70;;;;;;;18.26;100.00;94496.47;5096052;28;20196;-76
2023/06/15 10:54:43;;;;;;;25.42;16.52;;;;;;;18.30;100.00;94497.31;5101524;28;20194;-76
2023/06/15 10:57:16;;;;;;;26.77;20.42;;;;;;;18.12;100.00;94482.66;5098663;28;20533;-76
2023/06/15 10:59:47;;;;;;;32.80;18.05;;;;;;;18.25;100.00;94467.50;5105248;28;20208;-75
2023/06/15 11:02:48;;;;;;;28.50;17.95;;;;;;;18.46;100.00;94481.34;5107281;28;20220;-75
2023/06/15 11:05:19;;;;;;;30.75;18.52;;;;;;;18.96;100.00;94478.16;5054256;28;20233;-75
2023/06/15 11:07:50;;;;;;;26.60;17.20;;;;;;;19.25;100.00;94470.84;5109596;28;20209;-75
2023/06/15 11:10:18;;;;;;;29.05;17.02;;;;;;;19.63;100.00;94470.22;5108398;28;20267;-75
2023/06/15 11:12:48;;;;;;;29.33;18.63;;;;;;;20.02;100.00;94461.25;5109136;28;20258;-75
2023/06/15 11:15:17;;;;;;;22.33;15.43;;;;;;;20.05;100.00;94469.50;5098661;28;20216;-76
2023/06/15 11:18:00;;;;;;;21.38;14.95;;;;;;;20.32;100.00;94456.16;5104916;28;20672;-75
2023/06/15 11:21:02;;;;;;;19.75;13.65;;;;;;;20.26;100.00;94460.47;5109377;28;20201;-76
2023/06/15 11:23:37;;;;;;;17.80;12.80;;;;;;;20.44;100.00;94447.53;5100979;28;20715;-76
2023/06/15 11:26:03;;;;;;;16.88;12.65;;;;;;;20.67;100.00;94441.56;5104614;28;20228;-76